Latest Coastal Weather Observations for Hamilton Island

IDQ60701

Issued at 6:52 pm EST Monday 29 August 2016 (issued every 10 minutes, with the page automatically refreshed every 10 minutes)

About coastal observations | Map of coastal stations | Coastal observations for QLD | Marine services | Other Formats
Station Details ID: 033106 Name: HAMILTON ISLAND AIRPORT Lat: -20.37 Lon: 148.95 Height: 58.66 m
Data from the previous 72 hours. | See also: Recent months at Hamilton Island
Date/Time
EST
Temp
°C
Wind Pressure Rain since
9am
mm
Weather Cloud Vis
km
Sea
Height
m
Swell
Dir  Spd
kts
Gust
kts
hPa Trend Height
m
Period
s
Dir
29/06:30pm 20.3 SE 20 22 1021.8 - 0.0 - Partly cloudy 10 - - - -
29/06:00pm 20.4 SE 19 23 1021.4 - 0.0 - Mostly clear 10 - - - -
29/05:30pm 20.4 SE 21 25 1021.2 - 0.0 - Partly cloudy 10 - - - -
29/05:00pm 20.9 SE 21 25 1021.5 - 0.0 - Partly cloudy 10 - - - -
29/04:48pm 20.7 SE 20 23 1021.6 - 0.0 - Partly cloudy 10 - - - -
29/04:33pm 20.6 SSE 23 26 1021.4 - 0.0 - Partly cloudy 10 - - - -
29/04:30pm 20.5 SSE 23 26 1021.4 - 0.0 - Partly cloudy 10 - - - -
29/04:22pm 20.6 SSE 21 25 1021.4 - 0.0 - Partly cloudy 10 - - - -
29/04:03pm 20.7 SSE 21 24 1021.3 - 0.0 - Partly cloudy 10 - - - -
29/04:00pm 20.6 SSE 21 24 1021.4 - 0.0 - Partly cloudy 10 - - - -
29/03:32pm 20.6 SSE 22 25 1021.2 - 0.0 - Partly cloudy 10 - - - -
29/03:30pm 20.5 SSE 22 26 1021.2 - 0.0 - Partly cloudy 10 - - - -
29/03:13pm 20.7 SSE 23 25 1021.0 - 0.0 - Partly cloudy 5 - - - -
29/03:00pm 20.8 SSE 22 25 1020.8 - 0.0 - Mostly cloudy 10 - - - -
29/02:30pm 21.1 SSE 23 25 1020.9 - 0.0 - Partly cloudy - - - - -
29/02:00pm 21.5 SSE 20 23 1021.3 - 0.0 - Partly cloudy - - - - -
29/01:30pm 21.7 SSE 18 22 1021.6 - 0.0 - Partly cloudy - - - - -
29/01:00pm 22.2 SSE 15 19 1021.9 - 0.0 - Partly cloudy - - - - -
29/12:30pm 21.9 SSE 15 19 1022.2 - 0.0 - Partly cloudy - - - - -
29/12:00pm 22.6 SE 16 18 1022.4 - 0.0 - - - - - - -
29/11:30am 23.0 ESE 19 21 1022.8 - 0.0 - - - - - - -
29/11:00am 23.4 ESE 14 17 1023.2 - 0.0 - Partly cloudy - - - - -
29/10:30am 22.3 ESE 15 19 1023.3 - 0.0 - Cloudy - - - - -
29/10:00am 22.7 ESE 16 19 1023.3 - 0.0 - Partly cloudy - - - - -
29/09:30am 22.3 ESE 14 18 1023.3 - 0.0 - Cloudy - - - - -
29/09:00am 21.9 ESE 16 19 1023.0 - 0.0 - Mostly cloudy - - - - -
29/08:30am 21.4 ESE 17 19 1023.1 - 0.0 - Partly cloudy - - - - -
29/08:00am 21.3 ESE 17 20 1022.8 - 0.0 - Cloudy - - - - -
29/07:30am 20.4 SE 13 15 1022.5 - 0.0 - Partly cloudy 10 - - - -
29/07:00am 20.4 SE 15 18 1022.2 - 0.0 - Partly cloudy 10 - - - -
29/06:30am 19.9 SE 15 19 1021.7 - 0.0 - Cloudy 10 - - - -
29/06:00am 20.1 ESE 14 17 1021.4 - 0.0 - Partly cloudy 10 - - - -
29/05:30am 20.1 ESE 17 20 1021.2 - 0.0 - Partly cloudy 10 - - - -
29/05:00am 19.7 SE 15 17 1021.1 - 0.0 - Partly cloudy 10 - - - -
29/04:30am 19.7 SE 14 16 1020.9 - 0.0 - Partly cloudy 10 - - - -
29/04:00am 19.5 ESE 12 15 1020.9 - 0.0 - Partly cloudy 10 - - - -
29/03:30am 19.7 ESE 15 18 1020.8 - 0.0 - Cloudy 10 - - - -
29/03:00am 19.5 ESE 14 17 1020.6 - 0.0 - Mostly cloudy 10 - - - -
29/02:30am 19.4 ESE 18 22 1020.8 - 0.0 - Partly cloudy 10 - - - -
29/02:00am 19.4 ESE 17 19 1020.9 - 0.0 - Partly cloudy 10 - - - -
29/01:30am 19.3 ESE 16 19 1021.3 - 0.0 - Partly cloudy 10 - - - -
29/01:00am 19.3 SE 17 22 1021.6 - 0.0 - Partly cloudy 10 - - - -
29/12:30am 19.2 SE 16 19 1021.6 - 0.0 - Partly cloudy 10 - - - -
29/12:00am 19.0 SE 16 19 1021.4 - 0.0 - Partly cloudy 10 - - - -
 
Date/Time
EST
Temp
°C
Wind Pressure Rain since
9am
mm
Weather Cloud Vis
km
Sea
Height
m
Swell
Dir  Spd
kts
Gust
kts
hPa Trend Height
m
Period
s
Dir
28/11:30pm 18.8 SE 16 19 1021.7 - 0.0 - Partly cloudy 10 - - - -
28/11:00pm 18.7 SE 18 21 1021.7 - 0.0 - Partly cloudy 10 - - - -
28/10:30pm 18.7 SE 17 20 1021.9 - 0.0 - Partly cloudy 10 - - - -
28/10:00pm 19.0 SE 17 21 1022.0 - 0.0 - Partly cloudy 10 - - - -
28/09:30pm 18.9 SE 17 21 1021.9 - 0.0 - Partly cloudy 10 - - - -
28/09:00pm 18.9 SE 18 20 1021.7 - 0.0 - Mostly clear 10 - - - -
28/08:30pm 18.7 SE 16 20 1021.9 - 0.0 - Partly cloudy 10 - - - -
28/08:00pm 18.8 SE 17 19 1022.0 - 0.0 - Partly cloudy - - - - -
28/07:30pm 18.9 SE 16 18 1021.7 - 0.0 - Partly cloudy 10 - - - -
28/07:00pm 18.8 SE 16 20 1021.3 - 0.0 - Partly cloudy 10 - - - -
28/06:30pm 18.8 SE 14 17 1021.2 - 0.0 - Partly cloudy 10 - - - -
28/06:00pm 18.9 SE 14 17 1020.6 - 0.0 - - 10 - - - -
28/05:30pm 19.2 SE 15 18 1020.7 - 0.0 - - - - - - -
28/05:00pm 19.2 ESE 14 17 1020.7 - 0.0 - - - - - - -
28/04:30pm 19.6 SE 14 18 1020.6 - 0.0 - - - - - - -
28/04:00pm 19.8 ESE 15 18 1020.4 - 0.0 - - - - - - -
28/03:30pm 20.1 ESE 15 18 1020.3 - 0.0 - - - - - - -
28/03:00pm 20.3 ESE 15 17 1020.2 - 0.0 - - - - - - -
28/02:30pm 20.4 ESE 15 18 1020.7 - 0.0 - - - - - - -
28/02:00pm 21.0 ESE 14 18 1020.9 - 0.0 - - - - - - -
28/01:30pm 20.9 ESE 15 17 1021.3 - 0.0 - - - - - - -
28/01:00pm 20.6 SSE 14 18 1021.7 - 0.0 - - - - - - -
28/12:30pm 20.2 SSE 14 18 1022.3 - 0.0 - - - - - - -
28/12:00pm 19.8 SSE 15 19 1022.6 - 0.0 - - - - - - -
28/11:30am 19.5 SSE 16 20 1023.1 - 0.0 - - - - - - -
28/11:00am 19.5 SSE 17 21 1023.4 - 0.0 - - - - - - -
28/10:30am 19.5 SSE 17 20 1023.6 - 0.0 - - - - - - -
28/10:00am 19.2 SSE 18 22 1023.7 - 0.0 - - - - - - -
28/09:30am 19.0 SSE 17 21 1023.8 - 0.0 - - - - - - -
28/09:00am 18.8 SSE 18 21 1023.5 - 0.0 - - - - - - -
28/08:30am 18.8 SSE 17 22 1023.3 - 0.0 - - - - - - -
28/08:00am 18.5 SSE 17 21 1023.1 - 0.0 - - - - - - -
28/07:30am 18.7 SSE 18 22 1022.8 - 0.0 - - - - - - -
28/07:00am 18.1 SE 18 23 1022.6 - 0.0 - - 10 - - - -
28/06:30am 17.7 SE 19 24 1022.2 - 0.0 - - 10 - - - -
28/06:00am 17.6 SSE 20 25 1021.8 - 0.0 - - 10 - - - -
28/05:30am 17.7 SSE 19 24 1021.7 - 0.0 - - 10 - - - -
28/05:00am 17.7 SSE 18 22 1021.3 - 0.0 - - 10 - - - -
28/04:30am 17.8 SSE 17 22 1021.3 - 0.0 - - 10 - - - -
28/04:00am 17.8 SSE 18 22 1021.3 - 0.0 - - - - - - -
28/03:30am 18.0 SE 17 22 1021.3 - 0.0 - - - - - - -
28/03:00am 18.0 SSE 17 21 1021.3 - 0.0 - - 10 - - - -
28/02:30am 18.0 SSE 17 20 1021.5 - 0.0 - - 10 - - - -
28/02:00am 18.2 SSE 15 19 1021.6 - 0.0 - - 10 - - - -
28/01:30am 17.8 S 16 20 1021.9 - 0.0 - - 10 - - - -
28/01:00am 17.5 S 16 21 1021.8 - 0.0 - - 10 - - - -
28/12:30am 18.4 SSE 13 17 1021.6 - 0.0 - - 10 - - - -
28/12:00am 18.7 SSE 16 21 1021.8 - 0.0 - - 10 - - - -
 
Date/Time
EST
Temp
°C
Wind Pressure Rain since
9am
mm
Weather Cloud Vis
km
Sea
Height
m
Swell
Dir  Spd
kts
Gust
kts
hPa Trend Height
m
Period
s
Dir
27/11:30pm 18.7 SE 15 19 1021.9 - 0.0 - - 10 - - - -
27/11:00pm 18.1 SE 13 17 1021.8 - 0.0 - - 10 - - - -
27/10:30pm 17.9 SE 13 16 1022.0 - 0.0 - - 10 - - - -
27/10:00pm 17.9 SE 13 16 1021.9 - 0.0 - - 10 - - - -
27/09:30pm 18.0 SE 14 17 1021.9 - 0.0 - - 10 - - - -
27/09:00pm 17.9 SE 14 17 1021.7 - 0.0 - - 10 - - - -
27/08:30pm 17.7 SE 14 17 1022.0 - 0.0 - - 10 - - - -
27/08:00pm 17.6 SE 13 15 1021.7 - 0.0 - - 10 - - - -
27/07:30pm 17.5 SE 14 16 1021.6 - 0.0 - - 10 - - - -
27/07:00pm 17.5 ESE 12 17 1021.2 - 0.0 - - 10 - - - -
27/06:30pm 17.6 ESE 12 16 1020.8 - 0.0 - - 10 - - - -
27/06:00pm 17.6 ESE 13 15 1020.4 - 0.0 - - 10 - - - -
27/05:30pm 17.6 ESE 12 14 1020.3 - 0.0 - - 10 - - - -
27/05:00pm 17.8 ESE 14 16 1020.0 - 0.0 - - - - - - -
27/04:30pm 17.8 ESE 13 16 1019.7 - 0.0 - - - - - - -
27/04:00pm 18.1 ESE 13 17 1019.6 - 0.0 - - - - - - -
27/03:30pm 18.4 ESE 12 15 1019.4 - 0.0 - - - - - - -
27/03:00pm 18.5 ESE 13 15 1019.4 - 0.0 - - - - - - -
27/02:30pm 18.7 SE 12 15 1019.7 - 0.0 - - - - - - -
27/02:00pm 18.9 ESE 13 17 1020.0 - 0.0 - - - - - - -
27/01:30pm 18.8 SE 19 24 1020.3 - 0.0 - - - - - - -
27/01:00pm 19.0 SSE 20 24 1020.8 - 0.0 - - - - - - -
27/12:30pm 18.3 SSE 21 24 1021.3 - 0.0 - - - - - - -
27/12:00pm 18.4 SSE 21 25 1021.4 - 0.0 - - - - - - -
27/11:30am 17.9 SSE 21 27 1021.7 - 0.0 - - - - - - -
27/11:00am 18.0 SSE 22 27 1022.1 - 0.0 - - - - - - -
27/10:30am 17.8 SSE 22 27 1022.3 - 0.0 - - - - - - -
27/10:00am 18.3 SSE 22 27 1022.4 - 0.0 - - - - - - -
27/09:30am 17.9 SSE 24 27 1022.3 - 0.0 - - 10 - - - -
27/09:00am 17.6 SSE 23 28 1022.2 - 0.0 - - 10 - - - -
27/08:30am 17.5 SSE 22 27 1022.2 - 0.0 - - 10 - - - -
27/08:00am 17.7 SSE 23 30 1022.0 - 0.0 - - 10 - - - -
27/07:30am 17.4 SSE 21 26 1021.7 - 0.0 - - 10 - - - -
27/07:00am 17.2 SSE 24 29 1021.1 - 0.0 - - 10 - - - -
27/06:30am 17.0 SSE 23 27 1020.9 - 0.0 - - 10 - - - -
27/06:00am 17.4 SSE 22 27 1020.3 - 0.0 - - 10 - - - -
27/05:30am 17.5 SSE 21 25 1019.9 - 0.0 - - 10 - - - -
27/05:00am 18.1 SSE 22 27 1019.6 - 0.0 - - 10 - - - -
27/04:30am 18.2 SSE 22 27 1019.4 - 0.0 - - 10 - - - -
27/04:00am 18.3 SSE 23 27 1019.2 - 0.0 - - 10 - - - -
27/03:30am 18.4 SSE 23 28 1019.0 - 0.0 - - 10 - - - -
27/03:00am 18.4 SSE 23 28 1018.7 - 0.0 - - 10 - - - -
27/02:30am 18.3 SSE 24 29 1018.7 - 0.0 - - 10 - - - -
27/02:00am 18.2 SE 23 26 1018.8 - 0.0 - - 10 - - - -
27/01:30am 18.2 SSE 22 26 1018.7 - 0.0 - - 10 - - - -
27/01:00am 18.2 SSE 23 27 1019.5 - 0.0 - - 10 - - - -
27/12:30am 18.3 SSE 21 27 1019.6 - 0.0 - - 10 - - - -
27/12:00am 18.5 SSE 24 28 1019.2 - 0.0 - - 10 - - - -
 
Date/Time
EST
Temp
°C
Wind Pressure Rain since
9am
mm
Weather Cloud Vis
km
Sea
Height
m
Swell
Dir  Spd
kts
Gust
kts
hPa Trend Height
m
Period
s
Dir
26/11:30pm 18.7 SSE 22 27 1019.4 - 0.0 - - 10 - - - -
26/11:00pm 18.8 SSE 22 26 1019.4 - 0.0 - Partly cloudy 10 - - - -
26/10:30pm 19.0 SSE 21 25 1019.4 - 0.0 - Partly cloudy 10 - - - -
26/10:00pm 19.0 SSE 19 25 1019.1 - 0.0 - - 10 - - - -
26/09:30pm 19.1 SSE 21 28 1019.0 - 0.0 - - 10 - - - -
26/09:00pm 19.4 SSE 23 27 1018.8 - 0.0 - Mostly clear 10 - - - -
26/08:30pm 19.3 SE 21 25 1018.5 - 0.0 - - 10 - - - -
26/08:00pm 19.1 SE 22 26 1018.1 - 0.0 - Partly cloudy 10 - - - -
26/07:30pm 19.1 SE 19 23 1017.6 - 0.0 - Partly cloudy 10 - - - -
26/07:00pm 19.2 SE 18 20 1017.5 - 0.0 - Partly cloudy 10 - - - -

Other Formats:

Comma delimited format used in spreadsheet applications
http://www.bom.gov.au/fwo/IDQ60701/IDQ60701.94368.axf

JavaScript Object Notation format (JSON) in row-major order
http://www.bom.gov.au/fwo/IDQ60701/IDQ60701.94368.json